createdAt,value
2022-11-13T00:02:19.390Z,49.70
2022-11-13T00:05:07.105Z,52.10
2022-11-13T00:07:53.716Z,46.00
2022-11-13T00:10:40.742Z,50.70
2022-11-13T00:13:30.312Z,46.50
2022-11-13T00:16:20.172Z,55.50
2022-11-13T00:19:07.824Z,45.70
2022-11-13T00:21:56.937Z,46.70
2022-11-13T00:24:43.904Z,60.50
2022-11-13T00:27:31.613Z,47.30
2022-11-13T00:30:19.657Z,43.40
2022-11-13T00:33:06.448Z,44.50
2022-11-13T00:35:52.806Z,46.10
2022-11-13T00:38:39.796Z,44.00
2022-11-13T00:41:26.708Z,49.80
2022-11-13T00:44:13.421Z,52.10
2022-11-13T00:47:00.181Z,40.50
2022-11-13T00:49:46.584Z,42.20
2022-11-13T00:52:33.794Z,49.00
2022-11-13T00:55:20.560Z,47.80
2022-11-13T00:58:07.474Z,46.40
2022-11-13T01:00:54.023Z,45.80
2022-11-13T01:03:40.431Z,52.50
2022-11-13T01:06:28.003Z,45.30
2022-11-13T01:09:14.337Z,47.40
2022-11-13T01:12:01.860Z,45.40
2022-11-13T01:14:49.093Z,42.80
2022-11-13T01:17:35.755Z,45.80
2022-11-13T01:20:24.002Z,47.80
2022-11-13T01:23:10.416Z,43.20
2022-11-13T01:26:24.416Z,41.10
2022-11-13T01:29:12.904Z,46.60
2022-11-13T01:31:59.306Z,49.30
2022-11-13T01:34:45.822Z,45.50
2022-11-13T01:37:32.729Z,43.20
2022-11-13T01:40:19.625Z,46.30
2022-11-13T01:43:25.841Z,47.80
2022-11-13T01:46:18.543Z,53.20
2022-11-13T01:49:11.242Z,52.40
2022-11-13T01:52:04.694Z,49.20
2022-11-13T01:54:55.685Z,52.80
2022-11-13T01:57:41.976Z,48.70
2022-11-13T02:00:28.523Z,46.70
2022-11-13T02:03:14.973Z,47.50
2022-11-13T02:06:01.980Z,45.40
2022-11-13T02:08:49.609Z,51.40
2022-11-13T02:11:37.596Z,53.40
2022-11-13T02:14:26.723Z,49.70
2022-11-13T02:17:20.899Z,38.40
2022-11-13T02:20:08.676Z,53.50
2022-11-13T02:23:28.627Z,49.70
2022-11-13T02:26:15.747Z,46.90
2022-11-13T02:29:03.880Z,52.00
2022-11-13T02:31:50.263Z,45.80
2022-11-13T02:34:36.732Z,50.60
2022-11-13T02:37:23.482Z,44.10
2022-11-13T02:40:11.011Z,60.60
2022-11-13T02:42:57.843Z,50.20
2022-11-13T02:45:44.326Z,58.40
2022-11-13T02:48:31.338Z,47.70
2022-11-13T02:51:19.130Z,57.00
2022-11-13T02:54:05.816Z,52.50
2022-11-13T02:56:52.932Z,46.30
2022-11-13T02:59:40.012Z,46.90
2022-11-13T03:02:26.620Z,43.00
2022-11-13T03:05:14.034Z,48.00
2022-11-13T03:08:01.017Z,52.30
2022-11-13T03:10:47.561Z,50.50
2022-11-13T03:13:34.276Z,50.30
2022-11-13T03:16:21.920Z,51.40
2022-11-13T03:19:08.759Z,48.80
2022-11-13T03:21:55.296Z,55.60
2022-11-13T03:24:42.128Z,55.10
2022-11-13T03:27:32.023Z,54.30
2022-11-13T03:30:18.860Z,54.20
2022-11-13T03:33:05.176Z,49.60
2022-11-13T03:35:51.501Z,46.40
2022-11-13T03:38:37.916Z,52.70
2022-11-13T03:41:24.678Z,50.60
2022-11-13T03:44:12.074Z,50.60
2022-11-13T03:46:58.631Z,51.50
2022-11-13T03:49:45.343Z,57.10
2022-11-13T03:52:31.760Z,59.30
2022-11-13T03:55:18.683Z,54.00
2022-11-13T03:58:05.929Z,52.40
2022-11-13T04:00:55.077Z,53.80
2022-11-13T04:03:41.923Z,53.90
2022-11-13T04:06:28.560Z,51.80
2022-11-13T04:09:15.113Z,50.40
2022-11-13T04:12:01.992Z,49.10
2022-11-13T04:14:48.803Z,47.90
2022-11-13T04:17:35.641Z,51.30
2022-11-13T04:20:22.521Z,43.60
2022-11-13T04:26:34.651Z,52.40
2022-11-13T04:29:21.287Z,41.10
2022-11-13T04:32:08.497Z,44.70
2022-11-13T04:34:54.816Z,37.80
2022-11-13T04:37:41.687Z,35.70
2022-11-13T04:40:28.701Z,46.80
2022-11-13T04:43:16.341Z,49.10
2022-11-13T04:46:02.726Z,35.30
2022-11-13T04:48:49.294Z,44.30
2022-11-13T04:51:35.971Z,45.00
2022-11-13T04:54:28.485Z,36.10
2022-11-13T04:57:15.301Z,38.00
2022-11-13T05:00:02.205Z,42.60
2022-11-13T05:02:48.498Z,37.90
2022-11-13T05:05:35.124Z,40.70
2022-11-13T05:08:22.065Z,36.80
2022-11-13T05:11:08.933Z,40.40
2022-11-13T05:14:00.664Z,40.30
2022-11-13T05:16:50.367Z,37.50
2022-11-13T05:19:37.458Z,40.10
2022-11-13T05:22:24.060Z,35.50
2022-11-13T05:25:10.772Z,42.70
2022-11-13T05:27:58.414Z,34.90
2022-11-13T05:30:44.964Z,32.20
2022-11-13T05:33:31.469Z,31.90
2022-11-13T05:36:18.633Z,30.40
2022-11-13T05:39:05.646Z,35.50
2022-11-13T05:41:53.474Z,34.70
2022-11-13T05:44:40.072Z,38.60
2022-11-13T05:47:26.439Z,39.50
2022-11-13T05:50:14.647Z,38.70
2022-11-13T05:53:01.283Z,31.40
2022-11-13T05:55:47.830Z,33.00
2022-11-13T05:58:35.253Z,36.40
2022-11-13T06:01:37.130Z,29.90
2022-11-13T06:04:23.523Z,27.60
2022-11-13T06:07:10.235Z,28.40
2022-11-13T06:09:56.994Z,38.70
2022-11-13T06:12:43.360Z,36.20
2022-11-13T06:15:29.907Z,37.10
2022-11-13T06:18:26.301Z,40.70
2022-11-13T06:21:22.542Z,40.00
2022-11-13T06:24:12.093Z,49.90
2022-11-13T06:26:58.381Z,48.20
2022-11-13T06:29:44.618Z,47.80
2022-11-13T06:32:30.992Z,45.90
2022-11-13T06:35:17.448Z,44.40
2022-11-13T06:38:04.288Z,50.70
2022-11-13T06:40:51.213Z,45.70
2022-11-13T06:43:38.119Z,44.50
2022-11-13T06:46:27.612Z,47.10
2022-11-13T06:49:14.250Z,47.60
2022-11-13T06:52:01.110Z,50.80
2022-11-13T06:54:47.586Z,48.80
2022-11-13T06:57:35.161Z,44.40
2022-11-13T07:00:22.160Z,42.90
2022-11-13T07:03:25.817Z,35.50
2022-11-13T07:06:16.898Z,41.50
2022-11-13T07:09:03.419Z,39.30
2022-11-13T07:11:49.901Z,36.20
2022-11-13T07:14:36.738Z,33.80
2022-11-13T07:17:24.323Z,38.50
2022-11-13T07:20:11.346Z,39.50
2022-11-13T07:22:59.472Z,37.30
2022-11-13T07:25:46.227Z,39.50
2022-11-13T07:28:32.524Z,42.10
2022-11-13T07:31:18.979Z,36.20
2022-11-13T07:34:05.477Z,43.50
2022-11-13T07:36:51.887Z,47.00
2022-11-13T07:39:38.796Z,48.70
2022-11-13T07:42:25.071Z,39.90
2022-11-13T07:45:11.488Z,41.20
2022-11-13T07:48:02.094Z,42.00
2022-11-13T07:50:49.162Z,37.20
2022-11-13T07:53:36.191Z,45.50
2022-11-13T07:56:25.506Z,55.50
2022-11-13T07:59:12.121Z,45.50
2022-11-13T08:01:59.141Z,48.10
2022-11-13T08:04:45.928Z,45.40
2022-11-13T08:07:32.645Z,40.30
2022-11-13T08:10:20.058Z,50.50
2022-11-13T08:13:08.432Z,48.40
2022-11-13T08:15:55.152Z,42.10
2022-11-13T08:18:42.043Z,43.10
2022-11-13T08:21:28.375Z,42.60
2022-11-13T08:24:16.034Z,40.80
2022-11-13T08:27:02.694Z,49.50
2022-11-13T08:29:50.692Z,45.60
2022-11-13T08:32:37.002Z,37.40
2022-11-13T08:35:28.070Z,36.90
2022-11-13T08:38:15.508Z,38.80
2022-11-13T08:41:08.570Z,38.60
2022-11-13T08:43:56.943Z,38.90
2022-11-13T08:46:43.704Z,32.80
2022-11-13T08:49:30.711Z,36.30
2022-11-13T08:52:17.674Z,34.00
2022-11-13T08:55:05.326Z,34.80
2022-11-13T08:57:52.209Z,34.60
2022-11-13T09:00:38.871Z,39.10
2022-11-13T09:03:25.658Z,39.20
2022-11-13T09:06:12.158Z,39.70
2022-11-13T09:08:58.855Z,35.90
2022-11-13T09:11:45.917Z,34.60
2022-11-13T09:14:32.239Z,36.10
2022-11-13T09:17:18.855Z,35.30
2022-11-13T09:20:09.976Z,33.60
2022-11-13T09:23:00.979Z,37.20
2022-11-13T09:25:47.684Z,39.40
2022-11-13T09:28:34.518Z,35.00
2022-11-13T09:31:21.207Z,34.60
2022-11-13T09:34:08.927Z,35.50
2022-11-13T09:36:55.247Z,33.60
2022-11-13T09:39:42.785Z,34.30
2022-11-13T09:42:29.403Z,37.80
2022-11-13T09:45:15.867Z,36.70
2022-11-13T09:48:34.935Z,34.20
2022-11-13T09:51:26.293Z,27.80
2022-11-13T09:54:14.524Z,29.80
2022-11-13T09:57:26.048Z,32.60
2022-11-13T10:00:20.300Z,37.00
2022-11-13T10:03:39.024Z,32.10
2022-11-13T10:07:03.290Z,33.80
2022-11-13T10:10:00.746Z,34.60
2022-11-13T10:12:48.286Z,34.90
2022-11-13T10:15:34.860Z,33.00
2022-11-13T10:18:29.547Z,36.10
2022-11-13T10:21:38.625Z,33.20
2022-11-13T10:24:30.396Z,33.30
2022-11-13T10:27:17.378Z,32.10
2022-11-13T10:31:19.814Z,30.40
2022-11-13T10:34:06.261Z,27.40
2022-11-13T10:37:38.666Z,29.20
2022-11-13T10:40:30.535Z,32.00
2022-11-13T10:43:22.611Z,36.80
2022-11-13T10:46:22.383Z,31.60
2022-11-13T10:49:30.377Z,31.90
2022-11-13T10:52:25.879Z,29.60
2022-11-13T10:55:41.048Z,33.20
2022-11-13T10:58:28.018Z,32.20
2022-11-13T11:01:23.979Z,33.70
2022-11-13T11:04:27.623Z,34.90
2022-11-13T11:07:20.571Z,29.80
2022-11-13T11:10:20.722Z,35.70
2022-11-13T11:13:22.832Z,38.90
2022-11-13T11:16:12.787Z,33.40
2022-11-13T11:19:02.398Z,34.40
2022-11-13T11:21:51.826Z,38.20
2022-11-13T11:24:46.460Z,37.70
2022-11-13T11:27:38.207Z,34.60
2022-11-13T11:30:29.490Z,33.10
2022-11-13T11:33:26.420Z,41.00
2022-11-13T11:36:35.332Z,33.80
2022-11-13T11:39:34.430Z,37.80
2022-11-13T11:43:13.010Z,39.00
2022-11-13T11:45:59.774Z,40.70
2022-11-13T11:48:46.583Z,37.30
2022-11-13T11:51:49.711Z,37.10
2022-11-13T11:54:47.028Z,33.20
2022-11-13T11:57:58.180Z,40.50
2022-11-13T12:00:51.002Z,35.40
2022-11-13T12:03:53.832Z,40.80
2022-11-13T12:06:56.860Z,39.00
2022-11-13T12:10:14.748Z,35.40
2022-11-13T12:13:31.695Z,39.50
2022-11-13T12:16:47.178Z,39.80
2022-11-13T12:20:17.269Z,38.50
2022-11-13T12:24:20.237Z,38.00
2022-11-13T12:27:43.763Z,36.80
2022-11-13T12:30:57.693Z,34.70
2022-11-13T12:34:01.708Z,39.00
2022-11-13T12:36:48.433Z,38.50
2022-11-13T12:39:55.492Z,29.80
2022-11-13T12:42:59.486Z,37.50
2022-11-13T12:46:08.294Z,40.20
2022-11-13T12:48:56.158Z,32.80
2022-11-13T12:51:57.549Z,37.10
2022-11-13T12:54:44.415Z,39.70
2022-11-13T12:57:32.483Z,36.50
2022-11-13T13:00:25.404Z,38.20
2022-11-13T13:03:12.020Z,34.60
2022-11-13T13:06:12.590Z,38.70
2022-11-13T13:09:20.089Z,32.80
2022-11-13T13:12:29.723Z,35.30
2022-11-13T13:15:28.010Z,34.80
2022-11-13T13:18:17.790Z,36.40
2022-11-13T13:21:09.352Z,34.40
2022-11-13T13:23:56.850Z,42.40
2022-11-13T13:26:47.392Z,40.00
2022-11-13T13:29:34.248Z,36.10
2022-11-13T13:32:28.248Z,37.90
2022-11-13T13:35:18.008Z,33.70
2022-11-13T13:38:18.566Z,36.50
2022-11-13T13:41:17.120Z,36.40
2022-11-13T13:44:13.521Z,42.30
2022-11-13T13:47:00.057Z,41.20
2022-11-13T13:49:46.867Z,42.50
2022-11-13T13:52:34.223Z,36.70
2022-11-13T13:55:46.912Z,37.30
2022-11-13T13:58:36.197Z,36.90
2022-11-13T14:01:31.953Z,33.50
2022-11-13T14:04:21.575Z,34.00
2022-11-13T14:07:26.751Z,35.00
2022-11-13T14:10:22.301Z,32.80
2022-11-13T14:13:22.566Z,33.40
2022-11-13T14:16:09.462Z,31.40
2022-11-13T14:19:05.511Z,32.00
2022-11-13T14:21:58.753Z,34.90
2022-11-13T14:24:57.035Z,30.80
2022-11-13T14:27:43.860Z,39.60
2022-11-13T14:30:31.961Z,34.10
2022-11-13T14:33:31.623Z,30.30
2022-11-13T14:36:31.600Z,33.70
2022-11-13T14:39:29.511Z,36.50
2022-11-13T14:42:28.709Z,47.90
2022-11-13T14:45:22.701Z,42.00
2022-11-13T14:48:33.984Z,36.40
2022-11-13T14:51:27.024Z,41.70
2022-11-13T14:54:53.572Z,40.20
2022-11-13T14:57:49.880Z,54.00
2022-11-13T15:00:37.716Z,44.70
2022-11-13T15:03:24.785Z,44.50
2022-11-13T15:06:21.370Z,40.10
2022-11-13T15:09:13.394Z,41.40
2022-11-13T15:12:00.114Z,42.10
2022-11-13T15:14:46.616Z,39.20
2022-11-13T15:17:33.545Z,37.30
2022-11-13T15:20:26.166Z,36.10
2022-11-13T15:23:15.463Z,33.20
2022-11-13T15:26:01.974Z,34.00
2022-11-13T15:28:48.550Z,37.60
2022-11-13T15:31:42.941Z,33.50
2022-11-13T15:34:29.509Z,38.20
2022-11-13T15:37:17.068Z,32.70
2022-11-13T15:40:05.049Z,40.70
2022-11-13T15:42:52.223Z,37.80
2022-11-13T15:45:44.039Z,39.70
2022-11-13T15:48:31.421Z,36.20
2022-11-13T15:51:28.435Z,37.40
2022-11-13T15:54:24.943Z,36.50
2022-11-13T15:57:22.432Z,34.30
2022-11-13T16:00:17.245Z,36.90
2022-11-13T16:03:11.209Z,41.60
2022-11-13T16:06:01.127Z,34.60
2022-11-13T16:08:48.214Z,36.30
2022-11-13T16:11:35.056Z,38.20
2022-11-13T16:14:24.844Z,35.70
2022-11-13T16:17:20.228Z,34.90
2022-11-13T16:20:12.757Z,41.50
2022-11-13T16:22:59.319Z,40.30
2022-11-13T16:25:47.189Z,42.20
2022-11-13T16:28:42.027Z,37.30
2022-11-13T16:31:39.529Z,36.20
2022-11-13T16:34:26.273Z,33.70
2022-11-13T16:37:19.115Z,38.90
2022-11-13T16:40:19.847Z,41.40
2022-11-13T16:43:07.186Z,33.70
2022-11-13T16:45:54.183Z,37.70
2022-11-13T16:48:42.053Z,38.80
2022-11-13T16:51:28.477Z,39.10
2022-11-13T16:54:15.148Z,32.70
2022-11-13T16:57:01.704Z,35.00
2022-11-13T16:59:48.229Z,33.10
2022-11-13T17:02:35.160Z,35.20
2022-11-13T17:05:23.280Z,35.80
2022-11-13T17:08:12.518Z,33.50
2022-11-13T17:10:59.772Z,33.40
2022-11-13T17:13:54.418Z,40.80
2022-11-13T17:16:41.074Z,34.50
2022-11-13T17:19:27.799Z,41.20
2022-11-13T17:22:14.688Z,44.20
2022-11-13T17:25:01.709Z,39.00
2022-11-13T17:27:49.231Z,41.50
2022-11-13T17:30:35.857Z,36.50
2022-11-13T17:33:22.762Z,44.20
2022-11-13T17:36:10.275Z,43.10
2022-11-13T17:38:57.191Z,42.00
2022-11-13T17:41:43.743Z,44.30
2022-11-13T17:44:30.504Z,40.20
2022-11-13T17:47:17.212Z,39.90
2022-11-13T17:50:07.403Z,40.60
